createdAt,value
2024-02-17T00:00:48.440Z,100408.03
2024-02-17T00:03:46.305Z,100406.13
2024-02-17T00:06:22.088Z,100405.77
2024-02-17T00:08:56.549Z,100411.98
2024-02-17T00:11:39.473Z,100423.05
2024-02-17T00:14:11.602Z,100423.21
2024-02-17T00:16:49.583Z,100424.27
2024-02-17T00:19:29.493Z,100418.76
2024-02-17T00:22:09.294Z,100416.50
2024-02-17T00:24:50.195Z,100417.36
2024-02-17T00:27:28.105Z,100424.76
2024-02-17T00:30:06.218Z,100428.94
2024-02-17T00:32:45.651Z,100429.97
2024-02-17T00:35:25.500Z,100432.75
2024-02-17T00:37:54.617Z,100434.88
2024-02-17T00:40:30.313Z,100434.55
2024-02-17T00:43:07.359Z,100435.64
2024-02-17T00:45:50.759Z,100436.92
2024-02-17T00:48:24.752Z,100439.90
2024-02-17T00:51:01.946Z,100442.73
2024-02-17T00:53:47.867Z,100440.36
2024-02-17T00:56:42.019Z,100442.36
2024-02-17T00:59:20.838Z,100449.25
2024-02-17T01:01:55.723Z,100452.73
2024-02-17T01:04:55.550Z,100452.20
2024-02-17T01:07:44.144Z,100442.27
2024-02-17T01:10:21.948Z,100449.28
2024-02-17T01:13:06.896Z,100456.50
2024-02-17T01:15:44.398Z,100460.55
2024-02-17T01:18:28.919Z,100469.29
2024-02-17T01:21:04.459Z,100470.19
2024-02-17T01:23:48.443Z,100471.02
2024-02-17T01:26:28.140Z,100476.67
2024-02-17T01:29:39.784Z,100475.52
2024-02-17T01:32:20.240Z,100479.86
2024-02-17T01:34:58.261Z,100479.09
2024-02-17T01:37:47.229Z,100482.83
2024-02-17T01:40:20.402Z,100475.77
2024-02-17T01:42:59.988Z,100481.11
2024-02-17T01:45:54.507Z,100475.88
2024-02-17T01:48:32.468Z,100468.22
2024-02-17T01:51:32.453Z,100471.14
2024-02-17T01:54:19.494Z,100467.88
2024-02-17T01:56:52.239Z,100473.81
2024-02-17T01:59:35.175Z,100478.14
2024-02-17T02:02:14.222Z,100474.91
2024-02-17T02:04:53.489Z,100472.27
2024-02-17T02:07:31.147Z,100469.08
2024-02-17T02:10:00.442Z,100474.55
2024-02-17T02:12:35.433Z,100483.52
2024-02-17T02:15:14.149Z,100490.91
2024-02-17T02:17:51.588Z,100499.05
2024-02-17T02:20:23.069Z,100508.34
2024-02-17T02:22:58.712Z,100518.26
2024-02-17T02:25:30.410Z,100519.71
2024-02-17T02:28:12.246Z,100520.14
2024-02-17T02:31:00.831Z,100522.05
2024-02-17T02:33:33.513Z,100517.58
2024-02-17T02:36:06.757Z,100512.60
2024-02-17T02:38:41.991Z,100518.94
2024-02-17T02:41:20.065Z,100521.66
2024-02-17T02:43:58.213Z,100530.85
2024-02-17T02:46:49.829Z,100528.02
2024-02-17T02:49:24.358Z,100539.14
2024-02-17T02:51:56.569Z,100541.29
2024-02-17T02:54:50.384Z,100558.41
2024-02-17T02:57:27.232Z,100563.65
2024-02-17T03:00:11.825Z,100562.86
2024-02-17T03:02:57.717Z,100566.16
2024-02-17T03:05:49.440Z,100571.02
2024-02-17T03:08:38.810Z,100572.21
2024-02-17T03:11:20.361Z,100563.16
2024-02-17T03:14:10.206Z,100562.47
2024-02-17T03:16:55.360Z,100559.98
2024-02-17T03:19:39.372Z,100557.80
2024-02-17T03:22:20.545Z,100556.40
2024-02-17T03:25:03.777Z,100550.14
2024-02-17T03:28:00.957Z,100549.18
2024-02-17T03:30:42.141Z,100555.42
2024-02-17T03:33:38.733Z,100552.21
2024-02-17T03:36:17.575Z,100557.08
2024-02-17T03:39:20.518Z,100561.91
2024-02-17T03:42:10.411Z,100563.73
2024-02-17T03:44:54.308Z,100574.79
2024-02-17T03:47:33.094Z,100575.04
2024-02-17T03:50:10.334Z,100579.20
2024-02-17T03:52:52.900Z,100578.28
2024-02-17T03:55:36.154Z,100585.48
2024-02-17T03:58:18.119Z,100587.73
2024-02-17T04:00:59.539Z,100592.08
2024-02-17T04:03:30.916Z,100598.02
2024-02-17T04:06:06.892Z,100598.89
2024-02-17T04:08:59.397Z,100593.42
2024-02-17T04:11:58.584Z,100606.70
2024-02-17T04:14:37.191Z,100607.13
2024-02-17T04:17:15.663Z,100608.44
2024-02-17T04:20:13.807Z,100603.14
2024-02-17T04:22:47.409Z,100602.83
2024-02-17T04:25:25.696Z,100608.77
2024-02-17T04:28:07.712Z,100611.30
2024-02-17T04:30:42.319Z,100616.56
2024-02-17T04:33:19.140Z,100620.73
2024-02-17T04:36:04.096Z,100622.81
2024-02-17T04:38:39.596Z,100619.87
2024-02-17T04:41:34.359Z,100627.70
2024-02-17T04:44:09.657Z,100631.00
2024-02-17T04:47:01.467Z,100631.33
2024-02-17T04:49:44.308Z,100629.23
2024-02-17T04:52:19.439Z,100624.89
2024-02-17T04:55:11.770Z,100626.61
2024-02-17T04:57:45.935Z,100635.70
2024-02-17T05:00:28.427Z,100643.59
2024-02-17T05:03:03.576Z,100638.45
2024-02-17T05:06:23.815Z,100649.71
2024-02-17T05:09:06.351Z,100657.25
2024-02-17T05:11:35.518Z,100653.66
2024-02-17T05:14:16.921Z,100657.75
2024-02-17T05:16:51.777Z,100663.74
2024-02-17T05:19:26.561Z,100669.77
2024-02-17T05:21:59.414Z,100679.57
2024-02-17T05:24:52.481Z,100683.14
2024-02-17T05:27:29.956Z,100695.85
2024-02-17T05:30:16.372Z,100690.48
2024-02-17T05:32:57.572Z,100687.67
2024-02-17T05:35:47.884Z,100693.72
2024-02-17T05:38:22.518Z,100701.20
2024-02-17T05:40:57.016Z,100702.23
2024-02-17T05:43:43.434Z,100710.34
2024-02-17T05:46:25.092Z,100708.29
2024-02-17T05:48:56.990Z,100707.33
2024-02-17T05:51:30.822Z,100722.15
2024-02-17T05:54:08.304Z,100729.16
2024-02-17T05:56:42.593Z,100731.60
2024-02-17T05:59:17.483Z,100734.21
2024-02-17T06:02:22.544Z,100735.46
2024-02-17T06:05:30.259Z,100740.25
2024-02-17T06:08:21.126Z,100749.83
2024-02-17T06:10:52.336Z,100752.98
2024-02-17T06:13:30.374Z,100759.55
2024-02-17T06:16:12.809Z,100760.44
2024-02-17T06:19:10.385Z,100770.02
2024-02-17T06:21:39.570Z,100774.86
2024-02-17T06:24:11.458Z,100774.48
2024-02-17T06:26:52.015Z,100774.97
2024-02-17T06:29:27.754Z,100773.05
2024-02-17T06:32:24.568Z,100785.92
2024-02-17T06:35:13.370Z,100787.10
2024-02-17T06:38:11.455Z,100791.23
2024-02-17T06:40:51.585Z,100790.71
2024-02-17T06:43:46.680Z,100798.30
2024-02-17T06:46:48.676Z,100808.34
2024-02-17T06:49:34.379Z,100813.48
2024-02-17T06:52:14.213Z,100815.67
2024-02-17T06:55:03.540Z,100819.63
2024-02-17T06:57:47.405Z,100821.66
2024-02-17T07:00:24.877Z,100826.31
2024-02-17T07:03:07.881Z,100824.40
2024-02-17T07:06:01.378Z,100826.16
2024-02-17T07:08:56.566Z,100829.98
2024-02-17T07:11:38.658Z,100831.73
2024-02-17T07:14:13.547Z,100835.06
2024-02-17T07:17:02.157Z,100841.48
2024-02-17T07:19:33.607Z,100838.02
2024-02-17T07:22:14.144Z,100838.70
2024-02-17T07:24:49.427Z,100839.20
2024-02-17T07:28:41.564Z,100847.52
2024-02-17T07:32:51.263Z,100849.43
2024-02-17T07:36:52.660Z,100851.80
2024-02-17T07:40:25.330Z,100848.14
2024-02-17T07:44:25.119Z,100854.08
2024-02-17T07:47:21.875Z,100853.58
2024-02-17T07:49:58.914Z,100851.88
2024-02-17T07:52:30.832Z,100861.63
2024-02-17T07:55:08.884Z,100862.02
2024-02-17T07:58:07.481Z,100865.73
2024-02-17T08:01:06.756Z,100868.67
2024-02-17T08:04:06.609Z,100862.95
2024-02-17T08:07:29.954Z,100861.95
2024-02-17T08:10:35.459Z,100873.75
2024-02-17T08:13:20.026Z,100881.15
2024-02-17T08:16:16.920Z,100884.00
2024-02-17T08:19:01.289Z,100888.55
2024-02-17T08:21:46.098Z,100895.60
2024-02-17T08:24:36.209Z,100894.84
2024-02-17T08:27:28.807Z,100894.96
2024-02-17T08:31:10.208Z,100895.80
2024-02-17T08:33:56.899Z,100899.95
2024-02-17T08:36:42.683Z,100908.79
2024-02-17T08:39:37.936Z,100907.39
2024-02-17T08:42:14.991Z,100908.42
2024-02-17T08:44:55.043Z,100914.70
2024-02-17T08:47:37.684Z,100916.16
2024-02-17T08:50:16.606Z,100914.97
2024-02-17T08:52:55.371Z,100916.06
2024-02-17T08:55:38.065Z,100922.41
2024-02-17T08:58:07.125Z,100922.80
2024-02-17T09:00:59.237Z,100925.19
2024-02-17T09:03:51.122Z,100929.04
2024-02-17T09:06:42.432Z,100923.64
2024-02-17T09:09:15.674Z,100920.14
2024-02-17T09:12:05.106Z,100925.30
2024-02-17T09:14:35.749Z,100928.83
2024-02-17T09:17:05.835Z,100925.44
2024-02-17T09:19:38.261Z,100928.35
2024-02-17T09:22:07.849Z,100935.33
2024-02-17T09:24:57.745Z,100945.84
2024-02-17T09:27:35.778Z,100937.66
2024-02-17T09:30:06.302Z,100952.96
2024-02-17T09:32:40.156Z,100949.05
2024-02-17T09:35:10.496Z,100951.27
2024-02-17T09:37:47.466Z,100947.65
2024-02-17T09:40:18.417Z,100954.17
2024-02-17T09:42:52.136Z,100949.20
2024-02-17T09:45:25.074Z,100955.48
2024-02-17T09:48:01.971Z,100960.67
2024-02-17T09:50:36.824Z,100963.59
2024-02-17T09:53:10.240Z,100962.53
2024-02-17T09:55:51.946Z,100959.52
2024-02-17T09:58:21.150Z,100967.54
2024-02-17T10:00:59.921Z,100982.94
2024-02-17T10:03:32.117Z,100983.46
2024-02-17T10:06:31.010Z,100993.73
2024-02-17T10:09:05.637Z,101003.59
2024-02-17T10:11:49.677Z,101004.16
2024-02-17T10:14:38.659Z,101009.02
2024-02-17T10:17:15.942Z,101010.38
2024-02-17T10:19:54.669Z,101012.81
2024-02-17T10:22:32.997Z,101016.59
2024-02-17T10:25:15.163Z,101018.73
2024-02-17T10:27:53.559Z,101018.60
2024-02-17T10:30:27.811Z,101026.48
2024-02-17T10:33:06.477Z,101031.63
2024-02-17T10:36:25.473Z,101035.16
2024-02-17T10:40:31.702Z,101040.98
2024-02-17T10:44:23.784Z,101041.67
2024-02-17T10:48:24.590Z,101045.13
2024-02-17T10:52:40.376Z,101052.33
2024-02-17T10:56:32.953Z,101058.89
2024-02-17T11:00:35.087Z,101063.66
2024-02-17T11:04:37.239Z,101068.27
2024-02-17T11:08:36.281Z,101076.07
2024-02-17T11:12:58.059Z,101079.48
2024-02-17T11:17:06.414Z,101086.37
2024-02-17T11:21:02.934Z,101086.34
2024-02-17T11:24:58.215Z,101095.57
2024-02-17T11:29:10.898Z,101098.36
2024-02-17T11:33:20.712Z,101106.04
2024-02-17T11:37:18.036Z,101107.31
2024-02-17T11:40:23.488Z,101105.95
2024-02-17T11:43:15.933Z,101109.27
2024-02-17T11:45:52.779Z,101116.71
2024-02-17T11:48:40.290Z,101118.58
2024-02-17T11:51:41.743Z,101125.84
2024-02-17T11:54:25.772Z,101133.11
2024-02-17T11:57:15.666Z,101146.33
2024-02-17T11:59:55.758Z,101153.13
2024-02-17T12:03:28.131Z,101156.45
2024-02-17T12:06:49.367Z,101160.09
2024-02-17T12:09:58.236Z,101168.09
2024-02-17T12:13:16.777Z,101171.06
2024-02-17T12:15:55.366Z,101179.05
2024-02-17T12:18:29.196Z,101180.10
2024-02-17T12:21:08.383Z,101184.27
2024-02-17T12:23:55.916Z,101183.22
2024-02-17T12:26:41.688Z,101193.26
2024-02-17T12:29:16.740Z,101200.70
2024-02-17T12:32:28.558Z,101202.27
2024-02-17T12:35:51.704Z,101208.68
2024-02-17T12:39:35.937Z,101214.55
2024-02-17T12:43:10.886Z,101220.27
2024-02-17T12:46:33.702Z,101234.46
2024-02-17T12:49:10.282Z,101241.23
2024-02-17T12:52:05.440Z,101245.41
2024-02-17T12:55:04.640Z,101247.49
2024-02-17T12:57:47.727Z,101254.43
2024-02-17T13:00:38.625Z,101261.34
2024-02-17T13:04:38.287Z,101264.63
2024-02-17T13:08:01.547Z,101271.54
2024-02-17T13:11:20.722Z,101278.66
2024-02-17T13:14:17.671Z,101287.52
2024-02-17T13:16:46.522Z,101297.58
2024-02-17T13:19:36.671Z,101302.27
2024-02-17T13:22:14.203Z,101313.71
2024-02-17T13:24:58.397Z,101323.06
2024-02-17T13:27:27.631Z,101326.38
2024-02-17T13:30:14.778Z,101336.96
2024-02-17T13:33:29.591Z,101340.63
2024-02-17T13:36:33.390Z,101352.62
2024-02-17T13:39:19.457Z,101360.30
2024-02-17T13:42:02.074Z,101370.38
2024-02-17T13:44:30.997Z,101376.14
2024-02-17T14:02:53.613Z,101444.83
2024-02-17T14:05:22.778Z,101451.98
2024-02-17T14:07:51.617Z,101464.48
2024-02-17T14:10:23.247Z,101467.63
2024-02-17T14:13:13.450Z,101471.45
2024-02-17T14:16:14.406Z,101488.27
2024-02-17T14:18:56.759Z,101498.48
2024-02-17T14:21:48.425Z,101508.70
2024-02-17T14:24:34.330Z,101514.94
2024-02-17T14:28:00.774Z,101525.31
2024-02-17T14:31:29.064Z,101537.73
2024-02-17T14:34:12.761Z,101550.34
2024-02-17T14:36:47.526Z,101565.20
2024-02-17T14:39:19.262Z,101565.55
2024-02-17T14:41:50.628Z,101573.14
2024-02-17T14:44:22.753Z,101584.17
2024-02-17T14:46:55.170Z,101592.98
2024-02-17T14:49:24.677Z,101597.48
2024-02-17T14:51:54.403Z,101606.98
2024-02-17T14:54:26.080Z,101617.52
2024-02-17T14:57:02.899Z,101624.23
2024-02-17T14:59:33.950Z,101631.33
2024-02-17T15:02:02.756Z,101640.27
2024-02-17T15:04:32.015Z,101646.65
2024-02-17T15:07:00.990Z,101649.56
2024-02-17T15:09:31.816Z,101660.95
2024-02-17T15:12:01.838Z,101664.73
2024-02-17T15:14:37.642Z,101673.70
2024-02-17T15:17:24.383Z,101682.31
2024-02-17T15:20:43.405Z,101688.52
2024-02-17T15:23:17.716Z,101696.64
2024-02-17T15:25:49.608Z,101703.55
2024-02-17T15:28:22.738Z,101703.54
2024-02-17T15:30:52.075Z,101711.14
2024-02-17T15:33:24.829Z,101719.44
2024-02-17T15:35:59.594Z,101725.98
2024-02-17T15:38:32.014Z,101734.98
2024-02-17T15:41:06.160Z,101736.86
2024-02-17T15:43:36.581Z,101743.58
2024-02-17T15:46:05.718Z,101751.16
2024-02-17T15:48:51.007Z,101756.19
2024-02-17T15:51:20.074Z,101759.80
2024-02-17T15:53:49.272Z,101766.51
2024-02-17T15:56:18.790Z,101769.27
2024-02-17T15:58:48.060Z,101771.69
2024-02-17T16:01:30.819Z,101777.21
2024-02-17T16:04:02.863Z,101790.50
2024-02-17T16:06:31.980Z,101789.47
2024-02-17T16:09:04.253Z,101796.55
2024-02-17T16:11:33.326Z,101798.98
2024-02-17T16:14:21.659Z,101813.13
2024-02-17T16:16:50.634Z,101816.73
2024-02-17T16:19:19.606Z,101812.20
2024-02-17T16:21:56.214Z,101828.75
2024-02-17T16:24:35.481Z,101836.34
2024-02-17T16:27:07.049Z,101842.16
2024-02-17T16:29:36.826Z,101846.08
2024-02-17T16:32:09.327Z,101854.27
2024-02-17T16:34:46.093Z,101863.35
2024-02-17T16:37:24.572Z,101868.64
2024-02-17T16:39:54.996Z,101865.67
2024-02-17T16:42:37.534Z,101881.50
2024-02-17T16:45:09.569Z,101888.02
2024-02-17T16:47:51.550Z,101893.34
2024-02-17T16:50:36.389Z,101896.08
2024-02-17T16:53:15.529Z,101898.14
2024-02-17T16:56:09.417Z,101907.75
2024-02-17T16:58:47.122Z,101914.42
2024-02-17T17:01:16.678Z,101912.11
2024-02-17T17:03:49.507Z,101914.98
2024-02-17T17:06:19.003Z,101922.72
2024-02-17T17:08:48.888Z,101929.59
2024-02-17T17:11:25.124Z,101935.94
2024-02-17T17:13:56.092Z,101938.67
2024-02-17T17:16:24.951Z,101942.27
2024-02-17T17:18:56.313Z,101946.39
2024-02-17T17:21:25.433Z,101950.73
2024-02-17T17:23:55.256Z,101952.55
2024-02-17T17:26:39.384Z,101956.73
2024-02-17T17:29:16.163Z,101959.57
2024-02-17T17:31:47.517Z,101961.00
2024-02-17T17:34:19.852Z,101962.92
2024-02-17T17:36:49.264Z,101967.30
2024-02-17T17:39:18.441Z,101969.54
2024-02-17T17:41:52.193Z,101978.55
2024-02-17T17:44:23.999Z,101981.30
2024-02-17T17:47:01.971Z,101985.61
2024-02-17T17:49:31.297Z,101989.27
2024-02-17T17:52:00.374Z,101991.88
2024-02-17T17:54:38.559Z,101996.39
2024-02-17T17:57:07.540Z,102001.95
2024-02-17T17:59:39.274Z,102010.08
2024-02-17T18:02:12.643Z,102015.59
2024-02-17T18:04:49.265Z,102017.70
2024-02-17T18:07:21.424Z,102018.77
2024-02-17T18:09:50.994Z,102018.98
2024-02-17T18:15:06.392Z,102025.54
2024-02-17T18:17:37.294Z,102032.80
2024-02-17T18:20:12.900Z,102032.80
2024-02-17T18:22:44.451Z,102033.48
2024-02-17T18:25:15.186Z,102029.70
2024-02-17T18:28:06.504Z,102030.73
2024-02-17T18:30:48.119Z,102032.98
2024-02-17T18:33:19.697Z,102039.86
2024-02-17T18:35:49.217Z,102048.48
2024-02-17T18:38:20.929Z,102058.61
2024-02-17T18:40:52.301Z,102062.23
2024-02-17T18:43:21.910Z,102068.64
2024-02-17T18:45:55.340Z,102071.58
2024-02-17T18:48:27.380Z,102072.65
2024-02-17T18:51:01.514Z,102078.20
2024-02-17T18:53:31.148Z,102077.37
2024-02-17T18:56:00.353Z,102078.40
2024-02-17T18:58:34.851Z,102084.14
2024-02-17T19:01:05.385Z,102084.22
2024-02-17T19:03:34.579Z,102089.44
2024-02-17T19:06:13.586Z,102099.32
2024-02-17T19:08:46.845Z,102102.09
2024-02-17T19:11:20.619Z,102105.05
2024-02-17T19:13:50.153Z,102103.89
2024-02-17T19:16:24.335Z,102101.84
2024-02-17T19:18:54.010Z,102110.27
2024-02-17T19:21:30.167Z,102117.09
2024-02-17T19:23:59.187Z,102124.77
2024-02-17T19:26:35.211Z,102127.52
2024-02-17T19:29:24.710Z,102126.61
2024-02-17T19:32:02.936Z,102131.25
2024-02-17T19:34:34.995Z,102132.78
2024-02-17T19:37:05.692Z,102136.23
2024-02-17T19:39:38.459Z,102138.60
2024-02-17T19:42:17.242Z,102138.20
2024-02-17T19:44:51.452Z,102144.10
2024-02-17T19:47:23.820Z,102143.23
2024-02-17T19:49:58.882Z,102142.11
2024-02-17T19:52:34.048Z,102143.45
2024-02-17T19:55:06.281Z,102143.94
2024-02-17T19:57:42.665Z,102148.39
2024-02-17T20:00:15.160Z,102155.45
2024-02-17T20:02:58.333Z,102162.48
2024-02-17T20:05:27.345Z,102168.35
2024-02-17T20:07:56.754Z,102171.48
2024-02-17T20:10:25.954Z,102172.55
2024-02-17T20:13:14.646Z,102177.41
2024-02-17T20:15:57.637Z,102178.30
2024-02-17T20:18:29.434Z,102184.49
2024-02-17T20:21:13.661Z,102193.30
2024-02-17T20:23:45.585Z,102197.55
2024-02-17T20:26:19.816Z,102200.38
2024-02-17T20:28:56.194Z,102202.61
2024-02-17T20:31:36.129Z,102203.98
2024-02-17T20:34:13.157Z,102203.12
2024-02-17T20:36:43.716Z,102205.39
2024-02-17T20:39:14.626Z,102211.29
2024-02-17T20:41:52.402Z,102212.50
2024-02-17T20:44:28.147Z,102215.08
2024-02-17T20:47:00.952Z,102217.67
2024-02-17T20:49:37.692Z,102219.36
2024-02-17T20:52:10.793Z,102225.73
2024-02-17T20:54:45.333Z,102232.95
2024-02-17T20:57:21.811Z,102234.69
2024-02-17T20:59:56.528Z,102240.55
2024-02-17T21:02:31.402Z,102245.05
2024-02-17T21:05:07.277Z,102248.30
2024-02-17T21:07:41.752Z,102249.48
2024-02-17T21:10:21.449Z,102250.68
2024-02-17T21:12:54.572Z,102252.60
2024-02-17T21:15:26.040Z,102252.96
2024-02-17T21:17:58.104Z,102254.23
2024-02-17T21:20:29.731Z,102256.64
2024-02-17T21:23:03.990Z,102258.03
2024-02-17T21:25:37.437Z,102257.06
2024-02-17T21:28:48.698Z,102257.77
2024-02-17T21:31:25.997Z,102259.89
2024-02-17T21:33:56.764Z,102265.94
2024-02-17T21:36:31.076Z,102269.02
2024-02-17T21:39:19.475Z,102269.89
2024-02-17T21:41:51.473Z,102273.02
2024-02-17T21:44:40.655Z,102270.28
2024-02-17T21:47:23.436Z,102267.89
2024-02-17T21:50:05.707Z,102270.70
2024-02-17T21:52:37.402Z,102271.76
2024-02-17T21:55:14.957Z,102268.74
2024-02-17T21:57:44.188Z,102271.10
2024-02-17T22:00:14.043Z,102273.64
2024-02-17T22:02:44.980Z,102280.64
2024-02-17T22:05:25.435Z,102286.58
2024-02-17T22:08:00.019Z,102291.61
2024-02-17T22:10:34.484Z,102295.11
2024-02-17T22:13:09.693Z,102291.39
2024-02-17T22:15:44.720Z,102295.08
2024-02-17T22:18:16.181Z,102298.65
2024-02-17T22:20:54.666Z,102302.55
2024-02-17T22:23:30.839Z,102300.73
2024-02-17T22:25:59.394Z,102304.73
2024-02-17T22:28:33.633Z,102309.54
2024-02-17T22:31:05.068Z,102314.99
2024-02-17T22:33:34.130Z,102317.66
2024-02-17T22:36:06.958Z,102317.27
2024-02-17T22:38:43.517Z,102320.45
2024-02-17T22:41:14.709Z,102318.30
2024-02-17T22:43:43.854Z,102319.09
2024-02-17T22:46:15.853Z,102321.74
2024-02-17T22:48:50.804Z,102321.30
2024-02-17T22:51:25.577Z,102319.33
2024-02-17T22:53:54.889Z,102319.55
2024-02-17T22:56:24.035Z,102319.46
2024-02-17T22:58:53.909Z,102323.73
2024-02-17T23:01:25.759Z,102325.94
2024-02-17T23:03:54.944Z,102324.73
2024-02-17T23:06:24.138Z,102322.20
2024-02-17T23:08:56.613Z,102322.57
2024-02-17T23:11:41.297Z,102327.39
2024-02-17T23:14:10.254Z,102328.61
2024-02-17T23:16:48.197Z,102330.67
2024-02-17T23:19:17.638Z,102329.95
2024-02-17T23:21:59.693Z,102328.88
2024-02-17T23:24:34.845Z,102332.23
2024-02-17T23:27:13.112Z,102329.43
2024-02-17T23:29:47.045Z,102331.98
2024-02-17T23:32:16.051Z,102330.42
2024-02-17T23:34:50.902Z,102330.91
2024-02-17T23:37:19.942Z,102332.30
2024-02-17T23:39:56.904Z,102335.92
2024-02-17T23:42:28.685Z,102340.09
2024-02-17T23:44:57.510Z,102344.27
2024-02-17T23:47:27.400Z,102347.63
2024-02-17T23:49:59.569Z,102348.41
2024-02-17T23:52:31.218Z,102345.85
2024-02-17T23:55:02.335Z,102345.67
2024-02-17T23:57:31.337Z,102345.65
